Terminal Aerodrome Forecast
Issued by NWS Charleston, WV

Current Version | Previous Version | Graphics & Text | Print | Product List | Glossary On
Versions: 1 2 3 4 5 6 7 8 9 10 11 12 13 14 15 16 17 18 19 20 21 22
000
FTUS41 KRLX 092355
TAFPKB
TAF
KPKB 092355Z 1000/1024 25009G15KT 6SM -SHSN OVC040
      TEMPO 1000/1001 2SM -SHSN BR OVC015
     FM100100 25009KT 6SM -SHSN OVC025
      TEMPO 1001/1004 3SM -SHSN BR OVC015
     FM100400 25009KT P6SM OVC015
     FM101500 24010G16KT P6SM BKN015
     FM101700 23011G17KT P6SM BKN025
     FM101900 23011G17KT P6SM BKN070
     FM102200 22009KT P6SM BKN080=

USA.gov is the U.S. government's official web portal to all federal, state and local government web resources and services.